sensor_id;sensor_type;location;lat;lon;timestamp;pressure;altitude;pressure_sealevel;temperature;humidity
63190;BME280;49286;44.460;26.114;2023-01-15T00:00:49;100880.38;;;3.89;100.00
63190;BME280;49286;44.460;26.114;2023-01-15T00:03:14;100780.59;;;3.31;100.00
63190;BME280;49286;44.460;26.114;2023-01-15T00:05:40;100802.72;;;3.46;100.00
63190;BME280;49286;44.460;26.114;2023-01-15T00:08:05;100789.16;;;3.29;100.00
63190;BME280;49286;44.460;26.114;2023-01-15T00:10:31;100931.75;;;3.99;100.00
63190;BME280;49286;44.460;26.114;2023-01-15T00:12:56;100838.50;;;3.54;100.00
63190;BME280;49286;44.460;26.114;2023-01-15T00:15:22;100813.09;;;3.46;100.00
63190;BME280;49286;44.460;26.114;2023-01-15T00:17:47;100925.91;;;4.05;100.00
63190;BME280;49286;44.460;26.114;2023-01-15T00:20:13;100912.72;;;3.99;100.00
63190;BME280;49286;44.460;26.114;2023-01-15T00:22:40;100776.66;;;3.17;100.00
63190;BME280;49286;44.460;26.114;2023-01-15T00:25:06;100821.56;;;3.40;100.00
63190;BME280;49286;44.460;26.114;2023-01-15T00:27:50;100810.34;;;3.41;100.00
63190;BME280;49286;44.460;26.114;2023-01-15T00:30:16;100790.09;;;3.31;100.00
63190;BME280;49286;44.460;26.114;2023-01-15T00:32:42;100913.44;;;3.95;100.00
63190;BME280;49286;44.460;26.114;2023-01-15T00:35:14;100820.63;;;3.38;100.00
63190;BME280;49286;44.460;26.114;2023-01-15T00:37:41;100908.28;;;3.96;100.00
63190;BME280;49286;44.460;26.114;2023-01-15T00:40:07;100890.63;;;3.86;100.00
63190;BME280;49286;44.460;26.114;2023-01-15T00:42:33;100800.81;;;3.40;100.00
63190;BME280;49286;44.460;26.114;2023-01-15T00:45:00;100789.94;;;3.26;100.00
63190;BME280;49286;44.460;26.114;2023-01-15T00:47:32;100782.22;;;3.28;100.00
63190;BME280;49286;44.460;26.114;2023-01-15T00:49:57;100777.03;;;3.28;100.00
63190;BME280;49286;44.460;26.114;2023-01-15T00:52:23;100889.75;;;3.86;100.00
63190;BME280;49286;44.460;26.114;2023-01-15T00:54:48;100900.66;;;4.01;100.00
63190;BME280;49286;44.460;26.114;2023-01-15T00:57:14;100851.44;;;3.78;100.00
63190;BME280;49286;44.460;26.114;2023-01-15T00:59:39;100880.84;;;4.03;100.00
63190;BME280;49286;44.460;26.114;2023-01-15T01:02:05;100745.91;;;3.28;100.00
63190;BME280;49286;44.460;26.114;2023-01-15T01:04:30;100854.19;;;3.83;100.00
63190;BME280;49286;44.460;26.114;2023-01-15T01:06:56;100769.00;;;3.46;100.00
63190;BME280;49286;44.460;26.114;2023-01-15T01:09:21;100734.53;;;3.24;100.00
63190;BME280;49286;44.460;26.114;2023-01-15T01:11:48;100874.63;;;3.99;100.00
63190;BME280;49286;44.460;26.114;2023-01-15T01:14:14;100752.75;;;3.26;100.00
63190;BME280;49286;44.460;26.114;2023-01-15T01:16:40;100865.75;;;3.93;100.00
63190;BME280;49286;44.460;26.114;2023-01-15T01:19:09;100746.03;;;3.31;100.00
63190;BME280;49286;44.460;26.114;2023-01-15T01:21:36;100868.63;;;4.00;100.00
63190;BME280;49286;44.460;26.114;2023-01-15T01:24:02;100852.91;;;3.96;100.00
63190;BME280;49286;44.460;26.114;2023-01-15T01:26:28;100753.13;;;3.36;100.00
63190;BME280;49286;44.460;26.114;2023-01-15T01:28:54;100814.00;;;3.72;100.00
63190;BME280;49286;44.460;26.114;2023-01-15T01:31:20;100848.28;;;3.87;100.00
63190;BME280;49286;44.460;26.114;2023-01-15T01:33:50;100725.66;;;3.17;100.00
63190;BME280;49286;44.460;26.114;2023-01-15T01:36:17;100740.22;;;3.38;100.00
63190;BME280;49286;44.460;26.114;2023-01-15T01:38:43;100831.59;;;3.80;100.00
63190;BME280;49286;44.460;26.114;2023-01-15T01:41:12;100689.00;;;2.83;100.00
63190;BME280;49286;44.460;26.114;2023-01-15T01:46:24;100850.09;;;3.90;100.00
63190;BME280;49286;44.460;26.114;2023-01-15T01:48:53;100843.88;;;3.86;100.00
63190;BME280;49286;44.460;26.114;2023-01-15T01:51:21;100761.91;;;3.40;100.00
63190;BME280;49286;44.460;26.114;2023-01-15T01:53:48;100820.38;;;3.81;100.00
63190;BME280;49286;44.460;26.114;2023-01-15T01:56:14;100709.69;;;3.05;100.00
63190;BME280;49286;44.460;26.114;2023-01-15T01:58:44;100749.56;;;3.33;100.00
63190;BME280;49286;44.460;26.114;2023-01-15T02:01:12;100848.81;;;3.77;100.00
63190;BME280;49286;44.460;26.114;2023-01-15T02:03:38;100851.69;;;3.86;100.00
63190;BME280;49286;44.460;26.114;2023-01-15T02:06:07;100787.56;;;3.58;100.00
63190;BME280;49286;44.460;26.114;2023-01-15T02:08:33;100840.47;;;3.87;100.00
63190;BME280;49286;44.460;26.114;2023-01-15T02:11:03;100741.47;;;3.25;100.00
63190;BME280;49286;44.460;26.114;2023-01-15T02:13:37;100811.69;;;3.79;100.00
63190;BME280;49286;44.460;26.114;2023-01-15T02:18:42;100718.50;;;3.10;100.00
63190;BME280;49286;44.460;26.114;2023-01-15T02:24:13;100709.59;;;3.02;100.00
63190;BME280;49286;44.460;26.114;2023-01-15T02:27:09;100843.44;;;3.72;100.00
63190;BME280;49286;44.460;26.114;2023-01-15T02:32:09;100696.50;;;2.99;100.00
63190;BME280;49286;44.460;26.114;2023-01-15T02:34:43;100745.78;;;3.25;100.00
63190;BME280;49286;44.460;26.114;2023-01-15T02:37:14;100819.31;;;3.75;100.00
63190;BME280;49286;44.460;26.114;2023-01-15T02:39:43;100839.53;;;3.85;100.00
63190;BME280;49286;44.460;26.114;2023-01-15T02:42:10;100813.69;;;3.63;100.00
63190;BME280;49286;44.460;26.114;2023-01-15T02:44:41;100805.94;;;3.64;100.00
63190;BME280;49286;44.460;26.114;2023-01-15T02:47:09;100682.41;;;2.91;100.00
63190;BME280;49286;44.460;26.114;2023-01-15T02:49:36;100788.41;;;3.57;100.00
63190;BME280;49286;44.460;26.114;2023-01-15T02:52:18;100800.84;;;3.67;100.00
63190;BME280;49286;44.460;26.114;2023-01-15T02:54:53;100671.84;;;3.10;100.00
63190;BME280;49286;44.460;26.114;2023-01-15T02:57:21;100689.03;;;3.08;100.00
63190;BME280;49286;44.460;26.114;2023-01-15T02:59:49;100740.13;;;3.35;100.00
63190;BME280;49286;44.460;26.114;2023-01-15T03:02:19;100797.13;;;3.59;100.00
63190;BME280;49286;44.460;26.114;2023-01-15T03:10:52;100732.78;;;3.23;100.00
63190;BME280;49286;44.460;26.114;2023-01-15T03:13:31;100694.69;;;2.96;100.00
63190;BME280;49286;44.460;26.114;2023-01-15T03:21:55;100812.22;;;3.45;100.00
63190;BME280;49286;44.460;26.114;2023-01-15T03:24:35;100714.47;;;2.94;100.00
63190;BME280;49286;44.460;26.114;2023-01-15T03:27:01;100801.75;;;3.42;100.00
63190;BME280;49286;44.460;26.114;2023-01-15T03:29:32;100751.44;;;3.13;100.00
63190;BME280;49286;44.460;26.114;2023-01-15T03:31:59;100696.00;;;2.85;100.00
63190;BME280;49286;44.460;26.114;2023-01-15T03:34:50;100818.88;;;3.63;100.00
63190;BME280;49286;44.460;26.114;2023-01-15T03:37:14;100673.88;;;2.69;100.00
63190;BME280;49286;44.460;26.114;2023-01-15T03:39:41;100803.50;;;3.43;100.00
63190;BME280;49286;44.460;26.114;2023-01-15T03:55:40;100679.66;;;2.86;100.00
63190;BME280;49286;44.460;26.114;2023-01-15T03:58:16;100800.59;;;3.59;100.00
63190;BME280;49286;44.460;26.114;2023-01-15T04:00:57;100815.81;;;3.74;100.00
63190;BME280;49286;44.460;26.114;2023-01-15T04:03:25;100814.44;;;3.84;100.00
63190;BME280;49286;44.460;26.114;2023-01-15T04:05:55;100683.69;;;3.04;100.00
63190;BME280;49286;44.460;26.114;2023-01-15T04:08:22;100805.66;;;3.80;100.00
63190;BME280;49286;44.460;26.114;2023-01-15T04:10:56;100674.00;;;2.98;100.00
63190;BME280;49286;44.460;26.114;2023-01-15T04:13:23;100810.38;;;3.92;100.00
63190;BME280;49286;44.460;26.114;2023-01-15T04:15:49;100700.22;;;3.31;100.00
63190;BME280;49286;44.460;26.114;2023-01-15T04:18:15;100679.63;;;3.10;100.00
63190;BME280;49286;44.460;26.114;2023-01-15T04:20:41;100809.66;;;3.98;100.00
63190;BME280;49286;44.460;26.114;2023-01-15T04:23:07;100802.94;;;4.03;100.00
63190;BME280;49286;44.460;26.114;2023-01-15T04:25:32;100680.34;;;3.32;100.00
63190;BME280;49286;44.460;26.114;2023-01-15T04:27:57;100806.19;;;3.97;100.00
63190;BME280;49286;44.460;26.114;2023-01-15T04:30:23;100789.50;;;3.64;100.00
63190;BME280;49286;44.460;26.114;2023-01-15T04:32:49;100803.34;;;3.90;100.00
63190;BME280;49286;44.460;26.114;2023-01-15T04:35:16;100801.59;;;3.89;100.00
63190;BME280;49286;44.460;26.114;2023-01-15T04:37:41;100784.31;;;3.89;100.00
63190;BME280;49286;44.460;26.114;2023-01-15T04:40:07;100790.28;;;3.87;100.00
63190;BME280;49286;44.460;26.114;2023-01-15T04:42:33;100795.09;;;4.01;100.00
63190;BME280;49286;44.460;26.114;2023-01-15T04:45:17;100676.81;;;3.30;100.00
63190;BME280;49286;44.460;26.114;2023-01-15T04:47:43;100769.81;;;3.96;100.00
63190;BME280;49286;44.460;26.114;2023-01-15T04:50:09;100712.19;;;3.53;100.00
63190;BME280;49286;44.460;26.114;2023-01-15T04:52:36;100805.00;;;4.13;100.00
63190;BME280;49286;44.460;26.114;2023-01-15T04:55:01;100680.34;;;3.32;100.00
63190;BME280;49286;44.460;26.114;2023-01-15T04:57:26;100813.63;;;4.12;100.00
63190;BME280;49286;44.460;26.114;2023-01-15T04:59:52;100799.75;;;4.12;100.00
63190;BME280;49286;44.460;26.114;2023-01-15T05:02:17;100688.25;;;3.35;100.00
63190;BME280;49286;44.460;26.114;2023-01-15T05:04:43;100795.31;;;4.08;100.00
63190;BME280;49286;44.460;26.114;2023-01-15T05:07:08;100818.22;;;4.21;100.00
63190;BME280;49286;44.460;26.114;2023-01-15T05:09:34;100827.78;;;4.22;100.00
63190;BME280;49286;44.460;26.114;2023-01-15T05:12:00;100772.22;;;3.90;100.00
63190;BME280;49286;44.460;26.114;2023-01-15T05:14:25;100823.53;;;4.24;100.00
63190;BME280;49286;44.460;26.114;2023-01-15T05:16:51;100818.97;;;4.17;100.00
63190;BME280;49286;44.460;26.114;2023-01-15T05:19:16;100796.91;;;4.04;100.00
63190;BME280;49286;44.460;26.114;2023-01-15T05:21:43;100797.94;;;4.09;100.00
63190;BME280;49286;44.460;26.114;2023-01-15T05:24:12;100782.16;;;4.03;100.00
63190;BME280;49286;44.460;26.114;2023-01-15T05:26:39;100812.22;;;4.23;100.00
63190;BME280;49286;44.460;26.114;2023-01-15T05:29:04;100782.16;;;4.03;100.00
63190;BME280;49286;44.460;26.114;2023-01-15T05:31:30;100815.03;;;4.30;100.00
63190;BME280;49286;44.460;26.114;2023-01-15T05:33:58;100800.81;;;4.18;100.00
63190;BME280;49286;44.460;26.114;2023-01-15T05:36:26;100827.66;;;4.19;100.00
63190;BME280;49286;44.460;26.114;2023-01-15T05:38:53;100796.84;;;4.02;100.00
63190;BME280;49286;44.460;26.114;2023-01-15T05:41:20;100828.00;;;4.02;100.00
63190;BME280;49286;44.460;26.114;2023-01-15T05:44:07;100719.09;;;3.53;100.00
63190;BME280;49286;44.460;26.114;2023-01-15T05:46:34;100706.31;;;3.59;100.00
63190;BME280;49286;44.460;26.114;2023-01-15T05:49:01;100801.59;;;4.16;100.00
63190;BME280;49286;44.460;26.114;2023-01-15T05:51:27;100829.59;;;4.25;100.00
63190;BME280;49286;44.460;26.114;2023-01-15T05:53:52;100714.16;;;3.61;100.00
63190;BME280;49286;44.460;26.114;2023-01-15T05:56:18;100834.06;;;4.29;100.00
63190;BME280;49286;44.460;26.114;2023-01-15T05:58:43;100833.22;;;4.30;100.00
63190;BME280;49286;44.460;26.114;2023-01-15T06:01:09;100830.63;;;4.30;100.00
63190;BME280;49286;44.460;26.114;2023-01-15T06:03:35;100706.13;;;3.53;100.00
63190;BME280;49286;44.460;26.114;2023-01-15T06:06:01;100776.06;;;4.02;100.00
63190;BME280;49286;44.460;26.114;2023-01-15T06:08:26;100721.56;;;3.75;100.00
63190;BME280;49286;44.460;26.114;2023-01-15T06:10:52;100840.56;;;4.16;100.00
63190;BME280;49286;44.460;26.114;2023-01-15T06:13:17;100818.84;;;4.14;100.00
63190;BME280;49286;44.460;26.114;2023-01-15T06:15:43;100720.09;;;3.56;100.00
63190;BME280;49286;44.460;26.114;2023-01-15T06:18:09;100852.78;;;4.46;100.00
63190;BME280;49286;44.460;26.114;2023-01-15T06:20:36;100830.91;;;4.39;100.00
63190;BME280;49286;44.460;26.114;2023-01-15T06:23:02;100822.75;;;4.27;100.00
63190;BME280;49286;44.460;26.114;2023-01-15T06:25:27;100821.28;;;4.08;100.00
63190;BME280;49286;44.460;26.114;2023-01-15T06:27:52;100865.88;;;4.49;100.00
63190;BME280;49286;44.460;26.114;2023-01-15T06:30:18;100874.22;;;4.38;100.00
63190;BME280;49286;44.460;26.114;2023-01-15T06:32:43;100864.16;;;4.49;100.00
63190;BME280;49286;44.460;26.114;2023-01-15T06:35:09;100845.47;;;4.34;100.00
63190;BME280;49286;44.460;26.114;2023-01-15T06:37:35;100864.91;;;4.45;100.00
63190;BME280;49286;44.460;26.114;2023-01-15T06:40:00;100761.72;;;3.87;100.00
63190;BME280;49286;44.460;26.114;2023-01-15T06:42:26;100865.81;;;4.47;100.00
63190;BME280;49286;44.460;26.114;2023-01-15T06:45:12;100872.78;;;4.48;100.00
63190;BME280;49286;44.460;26.114;2023-01-15T06:47:56;100755.78;;;3.91;100.00
63190;BME280;49286;44.460;26.114;2023-01-15T06:50:23;100737.38;;;3.83;100.00
63190;BME280;49286;44.460;26.114;2023-01-15T06:52:50;100779.88;;;4.12;100.00
63190;BME280;49286;44.460;26.114;2023-01-15T06:55:15;100771.28;;;4.15;100.00
63190;BME280;49286;44.460;26.114;2023-01-15T06:57:43;100762.13;;;3.99;100.00
63190;BME280;49286;44.460;26.114;2023-01-15T07:00:10;100779.28;;;3.94;100.00
63190;BME280;49286;44.460;26.114;2023-01-15T07:02:36;100882.78;;;4.63;100.00
63190;BME280;49286;44.460;26.114;2023-01-15T07:05:02;100877.56;;;4.61;100.00
63190;BME280;49286;44.460;26.114;2023-01-15T07:07:28;100916.34;;;4.82;100.00
63190;BME280;49286;44.460;26.114;2023-01-15T07:09:54;100878.94;;;4.52;100.00
63190;BME280;49286;44.460;26.114;2023-01-15T07:12:20;100924.28;;;4.87;100.00
63190;BME280;49286;44.460;26.114;2023-01-15T07:14:46;100890.69;;;4.66;100.00
63190;BME280;49286;44.460;26.114;2023-01-15T07:17:12;100899.59;;;4.74;100.00
63190;BME280;49286;44.460;26.114;2023-01-15T07:19:38;100929.50;;;4.89;100.00
63190;BME280;49286;44.460;26.114;2023-01-15T07:22:05;100793.03;;;4.18;100.00
63190;BME280;49286;44.460;26.114;2023-01-15T07:24:31;100788.78;;;4.20;100.00
63190;BME280;49286;44.460;26.114;2023-01-15T07:26:56;100936.06;;;5.04;100.00
63190;BME280;49286;44.460;26.114;2023-01-15T07:29:22;100815.59;;;4.19;100.00
63190;BME280;49286;44.460;26.114;2023-01-15T07:31:48;100820.00;;;4.22;100.00
63190;BME280;49286;44.460;26.114;2023-01-15T07:34:14;100950.00;;;4.78;100.00
63190;BME280;49286;44.460;26.114;2023-01-15T07:36:40;100943.50;;;4.92;100.00
63190;BME280;49286;44.460;26.114;2023-01-15T07:39:06;100843.69;;;4.33;100.00
63190;BME280;49286;44.460;26.114;2023-01-15T07:41:32;100958.34;;;4.96;100.00
63190;BME280;49286;44.460;26.114;2023-01-15T07:44:17;100957.53;;;4.97;100.00
63190;BME280;49286;44.460;26.114;2023-01-15T07:47:01;100969.75;;;5.00;100.00
63190;BME280;49286;44.460;26.114;2023-01-15T07:49:47;100985.34;;;5.00;100.00
63190;BME280;49286;44.460;26.114;2023-01-15T07:52:18;100998.28;;;4.98;100.00
63190;BME280;49286;44.460;26.114;2023-01-15T07:54:44;100996.81;;;5.06;100.00
63190;BME280;49286;44.460;26.114;2023-01-15T07:57:11;100856.16;;;4.16;100.00
63190;BME280;49286;44.460;26.114;2023-01-15T07:59:38;100883.81;;;4.41;100.00
63190;BME280;49286;44.460;26.114;2023-01-15T08:02:03;100857.38;;;4.27;100.00
63190;BME280;49286;44.460;26.114;2023-01-15T08:04:29;100874.94;;;4.34;100.00
63190;BME280;49286;44.460;26.114;2023-01-15T08:06:55;100853.63;;;4.19;100.00
63190;BME280;49286;44.460;26.114;2023-01-15T08:09:20;101004.53;;;5.03;100.00
63190;BME280;49286;44.460;26.114;2023-01-15T08:11:46;100931.69;;;4.48;100.00
63190;BME280;49286;44.460;26.114;2023-01-15T08:14:30;101019.19;;;4.74;100.00
63190;BME280;49286;44.460;26.114;2023-01-15T08:17:14;101025.84;;;4.92;100.00
63190;BME280;49286;44.460;26.114;2023-01-15T08:19:39;100916.13;;;4.49;100.00
63190;BME280;49286;44.460;26.114;2023-01-15T08:22:05;100860.53;;;4.17;100.00
63190;BME280;49286;44.460;26.114;2023-01-15T08:24:30;101017.41;;;4.99;100.00
63190;BME280;49286;44.460;26.114;2023-01-15T08:26:56;100981.13;;;4.76;100.00
63190;BME280;49286;44.460;26.114;2023-01-15T08:29:21;100909.00;;;4.43;100.00
63190;BME280;49286;44.460;26.114;2023-01-15T08:31:47;101028.03;;;5.06;100.00
63190;BME280;49286;44.460;26.114;2023-01-15T08:34:13;100942.06;;;4.48;100.00
63190;BME280;49286;44.460;26.114;2023-01-15T08:36:38;100897.38;;;4.32;100.00
63190;BME280;49286;44.460;26.114;2023-01-15T08:39:04;101054.94;;;5.07;100.00
63190;BME280;49286;44.460;26.114;2023-01-15T08:41:30;100947.69;;;4.34;100.00
63190;BME280;49286;44.460;26.114;2023-01-15T08:43:56;101017.09;;;4.90;100.00
63190;BME280;49286;44.460;26.114;2023-01-15T08:46:21;100972.63;;;4.55;100.00
63190;BME280;49286;44.460;26.114;2023-01-15T08:48:47;101032.16;;;5.00;100.00
63190;BME280;49286;44.460;26.114;2023-01-15T08:51:14;100963.97;;;4.56;100.00
63190;BME280;49286;44.460;26.114;2023-01-15T08:53:40;100968.44;;;4.60;100.00
63190;BME280;49286;44.460;26.114;2023-01-15T08:56:16;101002.97;;;4.56;100.00
63190;BME280;49286;44.460;26.114;2023-01-15T08:58:42;101067.16;;;5.10;100.00
63190;BME280;49286;44.460;26.114;2023-01-15T09:01:09;100945.06;;;4.34;100.00
63190;BME280;49286;44.460;26.114;2023-01-15T09:03:36;101049.34;;;4.96;100.00
63190;BME280;49286;44.460;26.114;2023-01-15T09:06:03;100965.53;;;4.51;100.00
63190;BME280;49286;44.460;26.114;2023-01-15T09:08:30;101024.28;;;4.98;100.00
63190;BME280;49286;44.460;26.114;2023-01-15T09:11:01;100938.72;;;4.52;100.00
63190;BME280;49286;44.460;26.114;2023-01-15T09:13:27;100938.13;;;4.59;100.00
63190;BME280;49286;44.460;26.114;2023-01-15T09:15:53;100905.41;;;4.40;100.00
63190;BME280;49286;44.460;26.114;2023-01-15T09:18:19;101031.66;;;5.12;100.00
63190;BME280;49286;44.460;26.114;2023-01-15T09:20:45;101073.78;;;5.27;100.00
63190;BME280;49286;44.460;26.114;2023-01-15T09:23:11;101045.97;;;5.24;100.00
63190;BME280;49286;44.460;26.114;2023-01-15T09:25:36;101058.78;;;5.47;100.00
63190;BME280;49286;44.460;26.114;2023-01-15T09:28:02;101066.44;;;5.41;100.00
63190;BME280;49286;44.460;26.114;2023-01-15T09:30:28;101017.22;;;5.21;100.00
63190;BME280;49286;44.460;26.114;2023-01-15T09:32:54;101072.59;;;5.44;100.00
63190;BME280;49286;44.460;26.114;2023-01-15T09:35:20;101072.53;;;5.43;100.00
63190;BME280;49286;44.460;26.114;2023-01-15T09:37:51;101035.16;;;5.39;100.00
63190;BME280;49286;44.460;26.114;2023-01-15T09:40:35;101063.41;;;5.56;100.00
63190;BME280;49286;44.460;26.114;2023-01-15T09:43:09;101039.00;;;5.52;100.00
63190;BME280;49286;44.460;26.114;2023-01-15T09:45:46;101027.09;;;5.32;100.00
63190;BME280;49286;44.460;26.114;2023-01-15T09:48:19;101098.78;;;5.78;100.00
63190;BME280;49286;44.460;26.114;2023-01-15T09:51:07;101097.31;;;5.86;100.00
63190;BME280;49286;44.460;26.114;2023-01-15T09:56:20;101034.91;;;5.32;100.00
63190;BME280;49286;44.460;26.114;2023-01-15T09:58:46;100978.56;;;5.05;100.00
63190;BME280;49286;44.460;26.114;2023-01-15T10:01:29;100965.16;;;5.20;100.00
63190;BME280;49286;44.460;26.114;2023-01-15T10:06:29;101006.81;;;5.48;100.00
63190;BME280;49286;44.460;26.114;2023-01-15T10:09:10;101085.63;;;6.00;100.00
63190;BME280;49286;44.460;26.114;2023-01-15T10:11:47;101061.19;;;5.97;100.00
63190;BME280;49286;44.460;26.114;2023-01-15T10:17:28;101087.84;;;5.89;100.00
63190;BME280;49286;44.460;26.114;2023-01-15T10:19:56;101076.81;;;5.97;100.00
63190;BME280;49286;44.460;26.114;2023-01-15T10:22:32;101060.38;;;5.99;100.00
63190;BME280;49286;44.460;26.114;2023-01-15T10:25:07;101076.63;;;5.92;100.00
63190;BME280;49286;44.460;26.114;2023-01-15T10:27:36;101080.34;;;5.99;100.00
63190;BME280;49286;44.460;26.114;2023-01-15T10:36:01;101064.09;;;6.07;100.00
63190;BME280;49286;44.460;26.114;2023-01-15T10:38:39;101005.34;;;5.58;100.00
63190;BME280;49286;44.460;26.114;2023-01-15T10:44:19;100957.53;;;5.26;100.00
63190;BME280;49286;44.460;26.114;2023-01-15T10:46:54;100992.53;;;5.64;100.00
63190;BME280;49286;44.460;26.114;2023-01-15T10:49:20;101040.72;;;6.09;100.00
63190;BME280;49286;44.460;26.114;2023-01-15T10:51:53;100942.28;;;5.68;100.00
63190;BME280;49286;44.460;26.114;2023-01-15T10:54:25;101052.94;;;6.11;100.00
63190;BME280;49286;44.460;26.114;2023-01-15T10:57:05;101051.75;;;6.32;100.00
63190;BME280;49286;44.460;26.114;2023-01-15T10:59:45;101038.38;;;6.18;100.00
63190;BME280;49286;44.460;26.114;2023-01-15T11:04:44;101030.28;;;6.41;100.00
63190;BME280;49286;44.460;26.114;2023-01-15T11:07:10;101020.06;;;6.17;100.00
63190;BME280;49286;44.460;26.114;2023-01-15T11:09:39;100993.81;;;6.09;100.00
63190;BME280;49286;44.460;26.114;2023-01-15T11:12:27;100981.72;;;5.81;100.00
63190;BME280;49286;44.460;26.114;2023-01-15T11:15:21;101005.41;;;6.20;100.00
63190;BME280;49286;44.460;26.114;2023-01-15T11:18:11;100907.19;;;5.54;100.00
63190;BME280;49286;44.460;26.114;2023-01-15T11:20:56;100882.66;;;5.46;100.00
63190;BME280;49286;44.460;26.114;2023-01-15T11:23:22;100962.69;;;6.15;100.00
63190;BME280;49286;44.460;26.114;2023-01-15T11:25:53;100943.19;;;5.69;100.00
63190;BME280;49286;44.460;26.114;2023-01-15T11:28:37;101013.47;;;6.29;100.00
63190;BME280;49286;44.460;26.114;2023-01-15T11:31:09;101009.47;;;6.42;100.00
63190;BME280;49286;44.460;26.114;2023-01-15T11:33:35;100970.78;;;6.24;100.00
63190;BME280;49286;44.460;26.114;2023-01-15T11:36:06;100996.56;;;6.47;100.00
63190;BME280;49286;44.460;26.114;2023-01-15T11:38:46;100950.72;;;6.22;100.00
63190;BME280;49286;44.460;26.114;2023-01-15T11:41:22;100967.97;;;6.50;100.00
63190;BME280;49286;44.460;26.114;2023-01-15T11:43:56;100881.06;;;5.83;100.00
63190;BME280;49286;44.460;26.114;2023-01-15T11:46:41;100995.38;;;6.67;100.00
63190;BME280;49286;44.460;26.114;2023-01-15T11:49:25;101008.84;;;6.51;100.00
63190;BME280;49286;44.460;26.114;2023-01-15T11:52:15;100883.44;;;5.74;100.00
63190;BME280;49286;44.460;26.114;2023-01-15T11:54:45;100920.38;;;6.24;100.00
63190;BME280;49286;44.460;26.114;2023-01-15T11:57:29;100864.13;;;5.97;100.00
63190;BME280;49286;44.460;26.114;2023-01-15T11:59:56;100860.97;;;6.09;100.00
63190;BME280;49286;44.460;26.114;2023-01-15T12:02:37;100949.41;;;6.72;100.00
63190;BME280;49286;44.460;26.114;2023-01-15T12:05:21;100954.81;;;6.80;100.00
63190;BME280;49286;44.460;26.114;2023-01-15T12:07:50;100958.16;;;6.76;100.00
63190;BME280;49286;44.460;26.114;2023-01-15T12:10:21;100969.47;;;6.75;100.00
63190;BME280;49286;44.460;26.114;2023-01-15T12:13:15;100995.63;;;6.45;100.00
63190;BME280;49286;44.460;26.114;2023-01-15T12:18:48;100972.66;;;6.63;100.00
63190;BME280;49286;44.460;26.114;2023-01-15T12:24:16;100943.91;;;6.27;100.00
63190;BME280;49286;44.460;26.114;2023-01-15T12:29:33;100963.38;;;6.74;100.00
63190;BME280;49286;44.460;26.114;2023-01-15T12:32:13;100962.50;;;6.41;100.00
63190;BME280;49286;44.460;26.114;2023-01-15T12:35:05;100966.16;;;6.47;100.00
63190;BME280;49286;44.460;26.114;2023-01-15T12:37:44;100959.38;;;6.54;100.00
63190;BME280;49286;44.460;26.114;2023-01-15T12:40:26;100838.91;;;5.96;100.00
63190;BME280;49286;44.460;26.114;2023-01-15T12:42:55;100854.25;;;6.20;100.00
63190;BME280;49286;44.460;26.114;2023-01-15T12:45:46;100957.94;;;6.65;100.00
63190;BME280;49286;44.460;26.114;2023-01-15T12:48:21;100973.81;;;6.76;100.00
63190;BME280;49286;44.460;26.114;2023-01-15T12:50:54;100972.28;;;6.84;100.00
63190;BME280;49286;44.460;26.114;2023-01-15T12:54:04;100902.44;;;6.34;100.00
63190;BME280;49286;44.460;26.114;2023-01-15T12:56:49;100984.75;;;6.97;100.00
63190;BME280;49286;44.460;26.114;2023-01-15T12:59:33;100841.06;;;6.12;100.00
63190;BME280;49286;44.460;26.114;2023-01-15T13:02:17;100987.34;;;6.96;100.00
63190;BME280;49286;44.460;26.114;2023-01-15T13:10:18;101003.72;;;6.89;100.00
63190;BME280;49286;44.460;26.114;2023-01-15T13:12:44;101003.63;;;6.86;100.00
63190;BME280;49286;44.460;26.114;2023-01-15T13:15:15;100889.97;;;6.23;100.00
63190;BME280;49286;44.460;26.114;2023-01-15T13:20:47;100999.53;;;6.95;100.00
63190;BME280;49286;44.460;26.114;2023-01-15T13:32:25;101007.88;;;6.47;100.00
63190;BME280;49286;44.460;26.114;2023-01-15T13:37:25;100909.03;;;6.22;100.00
63190;BME280;49286;44.460;26.114;2023-01-15T13:39:59;101000.56;;;6.67;100.00
63190;BME280;49286;44.460;26.114;2023-01-15T13:42:27;100993.75;;;6.74;100.00
63190;BME280;49286;44.460;26.114;2023-01-15T13:44:56;100996.47;;;6.77;100.00
63190;BME280;49286;44.460;26.114;2023-01-15T13:47:27;100906.25;;;6.16;100.00
63190;BME280;49286;44.460;26.114;2023-01-15T13:50:02;100989.34;;;6.71;100.00
63190;BME280;49286;44.460;26.114;2023-01-15T13:52:34;100908.78;;;6.12;100.00
63190;BME280;49286;44.460;26.114;2023-01-15T13:55:14;100970.88;;;6.29;100.00
63190;BME280;49286;44.460;26.114;2023-01-15T13:57:43;100967.03;;;6.48;100.00
63190;BME280;49286;44.460;26.114;2023-01-15T14:02:58;100972.28;;;6.49;100.00
63190;BME280;49286;44.460;26.114;2023-01-15T14:05:32;100862.88;;;5.84;100.00
63190;BME280;49286;44.460;26.114;2023-01-15T14:07:59;100993.78;;;6.39;100.00
63190;BME280;49286;44.460;26.114;2023-01-15T14:10:35;100951.22;;;6.40;100.00
63190;BME280;49286;44.460;26.114;2023-01-15T14:16:56;100851.47;;;5.79;100.00
63190;BME280;49286;44.460;26.114;2023-01-15T14:19:14;100981.19;;;6.58;100.00
63190;BME280;49286;44.460;26.114;2023-01-15T14:34:53;100925.66;;;6.27;100.00
63190;BME280;49286;44.460;26.114;2023-01-15T14:37:34;100953.88;;;6.42;100.00
63190;BME280;49286;44.460;26.114;2023-01-15T14:40:05;100820.28;;;5.81;100.00